sensor_id;sensor_type;location;lat;lon;timestamp;P1;durP1;ratioP1;P2;durP2;ratioP2
16665;SDS011;8446;50.998;6.250;2023-06-22T00:02:34;4.90;;;4.20;;
16665;SDS011;8446;50.998;6.250;2023-06-22T00:05:01;9.73;;;4.87;;
16665;SDS011;8446;50.998;6.250;2023-06-22T00:07:29;8.40;;;5.00;;
16665;SDS011;8446;50.998;6.250;2023-06-22T00:09:55;8.33;;;4.63;;
16665;SDS011;8446;50.998;6.250;2023-06-22T00:12:22;5.90;;;4.77;;
16665;SDS011;8446;50.998;6.250;2023-06-22T00:14:49;7.93;;;5.17;;
16665;SDS011;8446;50.998;6.250;2023-06-22T00:17:16;6.33;;;5.23;;
16665;SDS011;8446;50.998;6.250;2023-06-22T00:19:54;6.17;;;4.47;;
16665;SDS011;8446;50.998;6.250;2023-06-22T00:22:25;7.50;;;4.57;;
16665;SDS011;8446;50.998;6.250;2023-06-22T00:24:54;5.63;;;4.70;;
16665;SDS011;8446;50.998;6.250;2023-06-22T00:27:27;6.90;;;5.13;;
16665;SDS011;8446;50.998;6.250;2023-06-22T00:29:53;6.70;;;5.10;;
16665;SDS011;8446;50.998;6.250;2023-06-22T00:32:20;6.93;;;4.77;;
16665;SDS011;8446;50.998;6.250;2023-06-22T00:34:47;6.50;;;5.27;;
16665;SDS011;8446;50.998;6.250;2023-06-22T00:37:15;6.47;;;4.43;;
16665;SDS011;8446;50.998;6.250;2023-06-22T00:39:45;6.67;;;3.80;;
16665;SDS011;8446;50.998;6.250;2023-06-22T00:42:11;9.93;;;4.80;;
16665;SDS011;8446;50.998;6.250;2023-06-22T00:44:38;9.10;;;5.13;;
16665;SDS011;8446;50.998;6.250;2023-06-22T00:47:11;5.53;;;4.20;;
16665;SDS011;8446;50.998;6.250;2023-06-22T00:49:39;7.70;;;5.40;;
16665;SDS011;8446;50.998;6.250;2023-06-22T00:52:06;8.80;;;5.40;;
16665;SDS011;8446;50.998;6.250;2023-06-22T00:54:35;5.70;;;4.23;;
16665;SDS011;8446;50.998;6.250;2023-06-22T00:57:03;5.37;;;4.00;;
16665;SDS011;8446;50.998;6.250;2023-06-22T00:59:30;8.00;;;4.77;;
16665;SDS011;8446;50.998;6.250;2023-06-22T01:01:58;6.40;;;5.10;;
16665;SDS011;8446;50.998;6.250;2023-06-22T01:04:33;6.40;;;5.07;;
16665;SDS011;8446;50.998;6.250;2023-06-22T01:07:02;9.17;;;4.97;;
16665;SDS011;8446;50.998;6.250;2023-06-22T01:09:43;7.80;;;6.07;;
16665;SDS011;8446;50.998;6.250;2023-06-22T01:12:15;5.60;;;4.50;;
16665;SDS011;8446;50.998;6.250;2023-06-22T01:14:47;7.63;;;5.90;;
16665;SDS011;8446;50.998;6.250;2023-06-22T01:17:21;7.80;;;4.80;;
16665;SDS011;8446;50.998;6.250;2023-06-22T01:19:49;6.93;;;5.10;;
16665;SDS011;8446;50.998;6.250;2023-06-22T01:22:20;9.17;;;5.33;;
16665;SDS011;8446;50.998;6.250;2023-06-22T01:24:55;9.57;;;6.20;;
16665;SDS011;8446;50.998;6.250;2023-06-22T01:27:32;8.60;;;6.17;;
16665;SDS011;8446;50.998;6.250;2023-06-22T01:30:08;9.37;;;5.90;;
16665;SDS011;8446;50.998;6.250;2023-06-22T01:32:36;9.13;;;5.90;;
16665;SDS011;8446;50.998;6.250;2023-06-22T01:35:08;9.37;;;6.23;;
16665;SDS011;8446;50.998;6.250;2023-06-22T01:37:37;8.83;;;6.10;;
16665;SDS011;8446;50.998;6.250;2023-06-22T01:40:05;8.77;;;5.57;;
16665;SDS011;8446;50.998;6.250;2023-06-22T01:42:33;6.87;;;5.53;;
16665;SDS011;8446;50.998;6.250;2023-06-22T01:45:01;9.20;;;7.03;;
16665;SDS011;8446;50.998;6.250;2023-06-22T01:47:30;10.20;;;6.60;;
16665;SDS011;8446;50.998;6.250;2023-06-22T01:49:57;8.23;;;6.20;;
16665;SDS011;8446;50.998;6.250;2023-06-22T01:52:26;13.40;;;6.77;;
16665;SDS011;8446;50.998;6.250;2023-06-22T01:54:53;11.07;;;6.67;;
16665;SDS011;8446;50.998;6.250;2023-06-22T01:57:22;13.07;;;7.00;;
16665;SDS011;8446;50.998;6.250;2023-06-22T01:59:52;10.20;;;8.03;;
16665;SDS011;8446;50.998;6.250;2023-06-22T02:02:23;10.67;;;8.00;;
16665;SDS011;8446;50.998;6.250;2023-06-22T02:04:56;16.80;;;7.70;;
16665;SDS011;8446;50.998;6.250;2023-06-22T02:07:26;12.20;;;7.20;;
16665;SDS011;8446;50.998;6.250;2023-06-22T02:09:58;14.40;;;8.03;;
16665;SDS011;8446;50.998;6.250;2023-06-22T02:12:28;13.23;;;7.80;;
16665;SDS011;8446;50.998;6.250;2023-06-22T02:14:56;15.13;;;8.57;;
16665;SDS011;8446;50.998;6.250;2023-06-22T02:17:26;10.07;;;8.10;;
16665;SDS011;8446;50.998;6.250;2023-06-22T02:19:53;11.10;;;7.70;;
16665;SDS011;8446;50.998;6.250;2023-06-22T02:22:28;11.03;;;7.37;;
16665;SDS011;8446;50.998;6.250;2023-06-22T02:24:55;12.60;;;8.43;;
16665;SDS011;8446;50.998;6.250;2023-06-22T02:27:22;16.73;;;8.63;;
16665;SDS011;8446;50.998;6.250;2023-06-22T02:29:55;14.00;;;8.07;;
16665;SDS011;8446;50.998;6.250;2023-06-22T02:32:22;15.60;;;8.07;;
16665;SDS011;8446;50.998;6.250;2023-06-22T02:34:49;12.83;;;8.47;;
16665;SDS011;8446;50.998;6.250;2023-06-22T02:37:16;13.40;;;8.73;;
16665;SDS011;8446;50.998;6.250;2023-06-22T02:39:45;13.43;;;9.10;;
16665;SDS011;8446;50.998;6.250;2023-06-22T02:42:12;11.70;;;8.70;;
16665;SDS011;8446;50.998;6.250;2023-06-22T02:44:39;16.20;;;9.27;;
16665;SDS011;8446;50.998;6.250;2023-06-22T02:47:05;13.63;;;9.10;;
16665;SDS011;8446;50.998;6.250;2023-06-22T02:49:32;14.60;;;9.50;;
16665;SDS011;8446;50.998;6.250;2023-06-22T02:51:59;22.90;;;9.17;;
16665;SDS011;8446;50.998;6.250;2023-06-22T02:54:28;13.10;;;8.57;;
16665;SDS011;8446;50.998;6.250;2023-06-22T02:56:56;10.27;;;8.27;;
16665;SDS011;8446;50.998;6.250;2023-06-22T02:59:23;16.50;;;7.93;;
16665;SDS011;8446;50.998;6.250;2023-06-22T03:01:50;12.43;;;8.60;;
16665;SDS011;8446;50.998;6.250;2023-06-22T03:04:17;17.90;;;10.27;;
16665;SDS011;8446;50.998;6.250;2023-06-22T03:06:46;15.20;;;9.13;;
16665;SDS011;8446;50.998;6.250;2023-06-22T03:09:16;12.80;;;8.80;;
16665;SDS011;8446;50.998;6.250;2023-06-22T03:11:43;16.37;;;10.30;;
16665;SDS011;8446;50.998;6.250;2023-06-22T03:14:11;12.63;;;8.60;;
16665;SDS011;8446;50.998;6.250;2023-06-22T03:16:38;11.87;;;8.70;;
16665;SDS011;8446;50.998;6.250;2023-06-22T03:19:05;15.10;;;9.40;;
16665;SDS011;8446;50.998;6.250;2023-06-22T03:21:32;13.13;;;8.70;;
16665;SDS011;8446;50.998;6.250;2023-06-22T03:24:05;16.17;;;9.70;;
16665;SDS011;8446;50.998;6.250;2023-06-22T03:26:32;13.17;;;8.60;;
16665;SDS011;8446;50.998;6.250;2023-06-22T03:28:59;16.50;;;9.40;;
16665;SDS011;8446;50.998;6.250;2023-06-22T03:31:27;15.23;;;9.23;;
16665;SDS011;8446;50.998;6.250;2023-06-22T03:33:54;10.77;;;8.67;;
16665;SDS011;8446;50.998;6.250;2023-06-22T03:36:21;12.63;;;9.00;;
16665;SDS011;8446;50.998;6.250;2023-06-22T03:38:48;11.37;;;8.70;;
16665;SDS011;8446;50.998;6.250;2023-06-22T03:41:16;17.27;;;9.30;;
16665;SDS011;8446;50.998;6.250;2023-06-22T03:43:42;15.87;;;10.27;;
16665;SDS011;8446;50.998;6.250;2023-06-22T03:46:09;16.53;;;10.20;;
16665;SDS011;8446;50.998;6.250;2023-06-22T03:48:38;18.23;;;10.07;;
16665;SDS011;8446;50.998;6.250;2023-06-22T03:51:26;26.23;;;10.23;;
16665;SDS011;8446;50.998;6.250;2023-06-22T03:54:00;17.67;;;9.60;;
16665;SDS011;8446;50.998;6.250;2023-06-22T03:56:27;15.93;;;9.47;;
16665;SDS011;8446;50.998;6.250;2023-06-22T03:58:54;15.13;;;8.80;;
16665;SDS011;8446;50.998;6.250;2023-06-22T04:01:21;14.07;;;10.23;;
16665;SDS011;8446;50.998;6.250;2023-06-22T04:03:49;14.67;;;9.27;;
16665;SDS011;8446;50.998;6.250;2023-06-22T04:06:16;17.13;;;10.30;;
16665;SDS011;8446;50.998;6.250;2023-06-22T04:08:44;14.40;;;9.80;;
16665;SDS011;8446;50.998;6.250;2023-06-22T04:11:15;19.40;;;10.70;;
16665;SDS011;8446;50.998;6.250;2023-06-22T04:13:42;13.10;;;9.63;;
16665;SDS011;8446;50.998;6.250;2023-06-22T04:16:09;20.80;;;10.57;;
16665;SDS011;8446;50.998;6.250;2023-06-22T04:18:36;14.83;;;10.40;;
16665;SDS011;8446;50.998;6.250;2023-06-22T04:21:04;23.43;;;11.23;;
16665;SDS011;8446;50.998;6.250;2023-06-22T04:23:31;24.33;;;10.00;;
16665;SDS011;8446;50.998;6.250;2023-06-22T04:25:58;15.50;;;10.40;;
16665;SDS011;8446;50.998;6.250;2023-06-22T04:28:25;19.67;;;10.80;;
16665;SDS011;8446;50.998;6.250;2023-06-22T04:30:52;15.23;;;10.33;;
16665;SDS011;8446;50.998;6.250;2023-06-22T04:33:23;16.90;;;10.73;;
16665;SDS011;8446;50.998;6.250;2023-06-22T04:35:50;13.60;;;10.33;;
16665;SDS011;8446;50.998;6.250;2023-06-22T04:38:18;18.00;;;10.60;;
16665;SDS011;8446;50.998;6.250;2023-06-22T04:40:46;23.50;;;11.07;;
16665;SDS011;8446;50.998;6.250;2023-06-22T04:43:13;19.37;;;10.70;;
16665;SDS011;8446;50.998;6.250;2023-06-22T04:45:40;17.90;;;10.60;;
16665;SDS011;8446;50.998;6.250;2023-06-22T04:48:06;18.70;;;10.60;;
16665;SDS011;8446;50.998;6.250;2023-06-22T04:50:34;17.97;;;10.20;;
16665;SDS011;8446;50.998;6.250;2023-06-22T04:53:03;16.63;;;9.97;;
16665;SDS011;8446;50.998;6.250;2023-06-22T04:55:32;18.70;;;10.53;;
16665;SDS011;8446;50.998;6.250;2023-06-22T04:57:59;18.90;;;10.30;;
16665;SDS011;8446;50.998;6.250;2023-06-22T05:00:29;13.40;;;9.20;;
16665;SDS011;8446;50.998;6.250;2023-06-22T05:02:57;14.97;;;10.27;;
16665;SDS011;8446;50.998;6.250;2023-06-22T05:05:24;14.03;;;10.93;;
16665;SDS011;8446;50.998;6.250;2023-06-22T05:07:51;26.70;;;10.00;;
16665;SDS011;8446;50.998;6.250;2023-06-22T05:10:20;15.43;;;9.60;;
16665;SDS011;8446;50.998;6.250;2023-06-22T05:12:49;14.53;;;10.30;;
16665;SDS011;8446;50.998;6.250;2023-06-22T05:15:15;28.70;;;11.20;;
16665;SDS011;8446;50.998;6.250;2023-06-22T05:17:44;20.77;;;10.50;;
16665;SDS011;8446;50.998;6.250;2023-06-22T05:20:11;15.93;;;10.87;;
16665;SDS011;8446;50.998;6.250;2023-06-22T05:22:38;13.40;;;9.13;;
16665;SDS011;8446;50.998;6.250;2023-06-22T05:25:07;19.93;;;9.90;;
16665;SDS011;8446;50.998;6.250;2023-06-22T05:27:35;16.90;;;8.80;;
16665;SDS011;8446;50.998;6.250;2023-06-22T05:30:06;18.90;;;8.80;;
16665;SDS011;8446;50.998;6.250;2023-06-22T05:32:34;14.53;;;9.50;;
16665;SDS011;8446;50.998;6.250;2023-06-22T05:35:01;15.63;;;9.70;;
16665;SDS011;8446;50.998;6.250;2023-06-22T05:37:28;16.00;;;10.10;;
16665;SDS011;8446;50.998;6.250;2023-06-22T05:39:55;14.93;;;9.00;;
16665;SDS011;8446;50.998;6.250;2023-06-22T05:42:22;19.73;;;9.60;;
16665;SDS011;8446;50.998;6.250;2023-06-22T05:44:50;17.17;;;9.33;;
16665;SDS011;8446;50.998;6.250;2023-06-22T05:47:19;13.57;;;9.60;;
16665;SDS011;8446;50.998;6.250;2023-06-22T05:49:47;21.57;;;9.67;;
16665;SDS011;8446;50.998;6.250;2023-06-22T05:52:14;11.07;;;8.33;;
16665;SDS011;8446;50.998;6.250;2023-06-22T05:54:41;14.63;;;9.63;;
16665;SDS011;8446;50.998;6.250;2023-06-22T05:57:08;13.20;;;9.30;;
16665;SDS011;8446;50.998;6.250;2023-06-22T05:59:34;14.70;;;8.97;;
16665;SDS011;8446;50.998;6.250;2023-06-22T06:02:01;15.17;;;9.10;;
16665;SDS011;8446;50.998;6.250;2023-06-22T06:04:29;19.03;;;10.03;;
16665;SDS011;8446;50.998;6.250;2023-06-22T06:06:56;18.03;;;10.67;;
16665;SDS011;8446;50.998;6.250;2023-06-22T06:09:23;13.50;;;9.43;;
16665;SDS011;8446;50.998;6.250;2023-06-22T06:11:50;14.23;;;9.13;;
16665;SDS011;8446;50.998;6.250;2023-06-22T06:14:16;19.00;;;10.60;;
16665;SDS011;8446;50.998;6.250;2023-06-22T06:16:43;17.80;;;10.47;;
16665;SDS011;8446;50.998;6.250;2023-06-22T06:19:10;14.70;;;9.50;;
16665;SDS011;8446;50.998;6.250;2023-06-22T06:21:38;18.77;;;9.20;;
16665;SDS011;8446;50.998;6.250;2023-06-22T06:24:05;17.17;;;8.87;;
16665;SDS011;8446;50.998;6.250;2023-06-22T06:26:32;12.40;;;8.67;;
16665;SDS011;8446;50.998;6.250;2023-06-22T06:29:01;18.00;;;8.80;;
16665;SDS011;8446;50.998;6.250;2023-06-22T06:31:28;15.53;;;10.27;;
16665;SDS011;8446;50.998;6.250;2023-06-22T06:33:55;19.20;;;9.97;;
16665;SDS011;8446;50.998;6.250;2023-06-22T06:36:22;17.77;;;10.20;;
16665;SDS011;8446;50.998;6.250;2023-06-22T06:38:50;12.77;;;9.30;;
16665;SDS011;8446;50.998;6.250;2023-06-22T06:41:17;16.37;;;9.47;;
16665;SDS011;8446;50.998;6.250;2023-06-22T06:43:46;15.60;;;9.87;;
16665;SDS011;8446;50.998;6.250;2023-06-22T06:46:12;17.90;;;10.27;;
16665;SDS011;8446;50.998;6.250;2023-06-22T06:48:39;15.20;;;8.83;;
16665;SDS011;8446;50.998;6.250;2023-06-22T06:51:06;14.37;;;9.50;;
16665;SDS011;8446;50.998;6.250;2023-06-22T06:53:34;14.10;;;9.80;;
16665;SDS011;8446;50.998;6.250;2023-06-22T06:56:02;13.77;;;8.70;;
16665;SDS011;8446;50.998;6.250;2023-06-22T06:58:30;15.40;;;10.10;;
16665;SDS011;8446;50.998;6.250;2023-06-22T07:00:57;14.97;;;9.27;;
16665;SDS011;8446;50.998;6.250;2023-06-22T07:03:24;15.30;;;9.00;;
16665;SDS011;8446;50.998;6.250;2023-06-22T07:05:51;17.87;;;9.00;;
16665;SDS011;8446;50.998;6.250;2023-06-22T07:08:18;21.23;;;8.47;;
16665;SDS011;8446;50.998;6.250;2023-06-22T07:10:44;14.17;;;9.90;;
16665;SDS011;8446;50.998;6.250;2023-06-22T07:13:12;11.97;;;8.97;;
16665;SDS011;8446;50.998;6.250;2023-06-22T07:15:39;15.93;;;9.57;;
16665;SDS011;8446;50.998;6.250;2023-06-22T07:18:07;13.17;;;9.40;;
16665;SDS011;8446;50.998;6.250;2023-06-22T07:20:33;16.13;;;10.07;;
16665;SDS011;8446;50.998;6.250;2023-06-22T07:23:00;16.10;;;8.87;;
16665;SDS011;8446;50.998;6.250;2023-06-22T07:25:27;20.33;;;8.10;;
16665;SDS011;8446;50.998;6.250;2023-06-22T07:27:58;14.77;;;9.00;;
16665;SDS011;8446;50.998;6.250;2023-06-22T07:30:27;15.90;;;9.00;;
16665;SDS011;8446;50.998;6.250;2023-06-22T07:32:54;18.90;;;11.53;;
16665;SDS011;8446;50.998;6.250;2023-06-22T07:35:21;15.50;;;9.30;;
16665;SDS011;8446;50.998;6.250;2023-06-22T07:37:48;16.20;;;8.77;;
16665;SDS011;8446;50.998;6.250;2023-06-22T07:40:15;14.83;;;9.47;;
16665;SDS011;8446;50.998;6.250;2023-06-22T07:42:42;15.00;;;9.50;;
16665;SDS011;8446;50.998;6.250;2023-06-22T07:45:09;14.03;;;9.20;;
16665;SDS011;8446;50.998;6.250;2023-06-22T07:47:37;17.53;;;9.50;;
16665;SDS011;8446;50.998;6.250;2023-06-22T07:50:04;15.80;;;9.50;;
16665;SDS011;8446;50.998;6.250;2023-06-22T07:52:31;19.03;;;8.87;;
16665;SDS011;8446;50.998;6.250;2023-06-22T07:54:59;11.50;;;8.77;;
16665;SDS011;8446;50.998;6.250;2023-06-22T07:57:25;13.77;;;8.47;;
16665;SDS011;8446;50.998;6.250;2023-06-22T07:59:58;17.23;;;8.93;;
16665;SDS011;8446;50.998;6.250;2023-06-22T08:02:25;11.30;;;7.80;;
16665;SDS011;8446;50.998;6.250;2023-06-22T08:04:56;21.60;;;10.90;;
16665;SDS011;8446;50.998;6.250;2023-06-22T08:07:23;15.33;;;9.00;;
16665;SDS011;8446;50.998;6.250;2023-06-22T08:09:50;22.40;;;10.50;;
16665;SDS011;8446;50.998;6.250;2023-06-22T08:12:17;19.97;;;9.90;;
16665;SDS011;8446;50.998;6.250;2023-06-22T08:14:52;9.13;;;8.13;;
16665;SDS011;8446;50.998;6.250;2023-06-22T08:17:47;16.97;;;8.73;;
16665;SDS011;8446;50.998;6.250;2023-06-22T08:20:16;13.80;;;8.93;;
16665;SDS011;8446;50.998;6.250;2023-06-22T08:22:43;17.77;;;9.40;;
16665;SDS011;8446;50.998;6.250;2023-06-22T08:25:10;11.53;;;8.93;;
16665;SDS011;8446;50.998;6.250;2023-06-22T08:27:44;11.63;;;9.10;;
16665;SDS011;8446;50.998;6.250;2023-06-22T08:30:13;17.23;;;9.40;;
16665;SDS011;8446;50.998;6.250;2023-06-22T08:32:41;14.30;;;9.50;;
16665;SDS011;8446;50.998;6.250;2023-06-22T08:35:08;12.63;;;9.37;;
16665;SDS011;8446;50.998;6.250;2023-06-22T08:37:37;12.80;;;9.00;;
16665;SDS011;8446;50.998;6.250;2023-06-22T08:40:06;14.90;;;9.43;;
16665;SDS011;8446;50.998;6.250;2023-06-22T08:42:35;14.60;;;8.80;;
16665;SDS011;8446;50.998;6.250;2023-06-22T08:45:03;11.37;;;7.90;;
16665;SDS011;8446;50.998;6.250;2023-06-22T08:47:30;16.30;;;8.33;;
16665;SDS011;8446;50.998;6.250;2023-06-22T08:49:57;10.93;;;8.30;;
16665;SDS011;8446;50.998;6.250;2023-06-22T08:52:27;16.77;;;9.63;;
16665;SDS011;8446;50.998;6.250;2023-06-22T08:54:57;21.70;;;8.73;;
16665;SDS011;8446;50.998;6.250;2023-06-22T08:57:24;14.23;;;8.40;;
16665;SDS011;8446;50.998;6.250;2023-06-22T08:59:51;14.73;;;8.17;;
16665;SDS011;8446;50.998;6.250;2023-06-22T09:02:18;18.73;;;8.40;;
16665;SDS011;8446;50.998;6.250;2023-06-22T09:04:45;9.43;;;7.10;;
16665;SDS011;8446;50.998;6.250;2023-06-22T09:07:16;13.13;;;7.53;;
16665;SDS011;8446;50.998;6.250;2023-06-22T09:09:48;17.17;;;8.40;;
16665;SDS011;8446;50.998;6.250;2023-06-22T09:12:16;8.97;;;6.93;;
16665;SDS011;8446;50.998;6.250;2023-06-22T09:14:45;11.00;;;7.07;;
16665;SDS011;8446;50.998;6.250;2023-06-22T09:17:12;15.80;;;7.30;;
16665;SDS011;8446;50.998;6.250;2023-06-22T09:19:39;18.23;;;6.80;;
16665;SDS011;8446;50.998;6.250;2023-06-22T09:22:06;11.40;;;8.20;;
16665;SDS011;8446;50.998;6.250;2023-06-22T09:24:32;11.97;;;7.33;;
16665;SDS011;8446;50.998;6.250;2023-06-22T09:26:59;15.43;;;7.00;;
16665;SDS011;8446;50.998;6.250;2023-06-22T09:29:27;8.97;;;6.80;;
16665;SDS011;8446;50.998;6.250;2023-06-22T09:32:00;9.80;;;7.03;;
16665;SDS011;8446;50.998;6.250;2023-06-22T09:34:27;10.67;;;8.20;;
16665;SDS011;8446;50.998;6.250;2023-06-22T09:36:54;9.93;;;7.17;;
16665;SDS011;8446;50.998;6.250;2023-06-22T09:39:25;10.53;;;7.33;;
16665;SDS011;8446;50.998;6.250;2023-06-22T09:41:52;11.43;;;7.53;;
16665;SDS011;8446;50.998;6.250;2023-06-22T09:44:19;10.90;;;7.97;;
16665;SDS011;8446;50.998;6.250;2023-06-22T09:46:47;11.00;;;7.40;;
16665;SDS011;8446;50.998;6.250;2023-06-22T09:49:19;12.37;;;8.40;;
16665;SDS011;8446;50.998;6.250;2023-06-22T09:51:49;11.30;;;8.07;;
16665;SDS011;8446;50.998;6.250;2023-06-22T09:54:16;7.57;;;6.77;;
16665;SDS011;8446;50.998;6.250;2023-06-22T09:56:43;13.23;;;6.90;;
16665;SDS011;8446;50.998;6.250;2023-06-22T09:59:12;22.73;;;7.53;;
16665;SDS011;8446;50.998;6.250;2023-06-22T10:01:39;11.70;;;7.20;;
16665;SDS011;8446;50.998;6.250;2023-06-22T10:04:16;8.43;;;7.03;;
16665;SDS011;8446;50.998;6.250;2023-06-22T10:06:45;10.67;;;7.90;;
16665;SDS011;8446;50.998;6.250;2023-06-22T10:09:13;10.67;;;7.73;;
16665;SDS011;8446;50.998;6.250;2023-06-22T10:11:40;21.53;;;7.63;;
16665;SDS011;8446;50.998;6.250;2023-06-22T10:14:09;8.50;;;7.23;;
16665;SDS011;8446;50.998;6.250;2023-06-22T10:16:39;11.90;;;8.37;;
16665;SDS011;8446;50.998;6.250;2023-06-22T10:19:06;15.60;;;7.40;;
16665;SDS011;8446;50.998;6.250;2023-06-22T10:21:34;20.17;;;7.87;;
16665;SDS011;8446;50.998;6.250;2023-06-22T10:24:01;16.33;;;8.90;;
16665;SDS011;8446;50.998;6.250;2023-06-22T10:26:31;13.90;;;8.13;;
16665;SDS011;8446;50.998;6.250;2023-06-22T10:28:58;12.73;;;8.80;;
16665;SDS011;8446;50.998;6.250;2023-06-22T10:31:24;13.30;;;9.60;;
16665;SDS011;8446;50.998;6.250;2023-06-22T10:33:52;16.07;;;8.80;;
16665;SDS011;8446;50.998;6.250;2023-06-22T10:36:19;16.93;;;10.33;;
16665;SDS011;8446;50.998;6.250;2023-06-22T10:38:47;11.50;;;10.13;;
16665;SDS011;8446;50.998;6.250;2023-06-22T10:41:14;17.77;;;10.97;;
16665;SDS011;8446;50.998;6.250;2023-06-22T10:43:41;23.17;;;11.57;;
16665;SDS011;8446;50.998;6.250;2023-06-22T10:46:09;18.47;;;12.30;;
16665;SDS011;8446;50.998;6.250;2023-06-22T10:48:36;18.83;;;10.80;;
16665;SDS011;8446;50.998;6.250;2023-06-22T10:51:02;16.40;;;11.50;;
16665;SDS011;8446;50.998;6.250;2023-06-22T10:53:29;16.87;;;11.53;;
16665;SDS011;8446;50.998;6.250;2023-06-22T10:55:57;18.33;;;12.20;;
16665;SDS011;8446;50.998;6.250;2023-06-22T10:58:24;16.97;;;11.83;;
16665;SDS011;8446;50.998;6.250;2023-06-22T11:00:51;18.27;;;12.67;;
16665;SDS011;8446;50.998;6.250;2023-06-22T11:03:20;20.93;;;12.37;;
16665;SDS011;8446;50.998;6.250;2023-06-22T11:05:47;21.33;;;14.60;;
16665;SDS011;8446;50.998;6.250;2023-06-22T11:08:14;18.07;;;14.53;;
16665;SDS011;8446;50.998;6.250;2023-06-22T11:10:41;19.20;;;12.80;;
16665;SDS011;8446;50.998;6.250;2023-06-22T11:13:10;26.77;;;14.73;;
16665;SDS011;8446;50.998;6.250;2023-06-22T11:15:39;18.27;;;11.40;;
16665;SDS011;8446;50.998;6.250;2023-06-22T11:18:06;19.47;;;11.90;;
16665;SDS011;8446;50.998;6.250;2023-06-22T11:20:33;19.27;;;12.37;;
16665;SDS011;8446;50.998;6.250;2023-06-22T11:23:03;14.33;;;10.60;;
16665;SDS011;8446;50.998;6.250;2023-06-22T11:25:31;17.17;;;9.87;;
16665;SDS011;8446;50.998;6.250;2023-06-22T11:27:59;12.17;;;8.73;;
16665;SDS011;8446;50.998;6.250;2023-06-22T11:30:28;17.93;;;8.47;;
16665;SDS011;8446;50.998;6.250;2023-06-22T11:32:56;13.83;;;8.90;;
16665;SDS011;8446;50.998;6.250;2023-06-22T11:35:23;10.00;;;7.53;;
16665;SDS011;8446;50.998;6.250;2023-06-22T11:37:49;9.70;;;7.17;;
16665;SDS011;8446;50.998;6.250;2023-06-22T11:40:16;14.50;;;7.43;;
16665;SDS011;8446;50.998;6.250;2023-06-22T11:42:43;11.13;;;7.10;;
16665;SDS011;8446;50.998;6.250;2023-06-22T11:45:10;9.80;;;7.00;;
16665;SDS011;8446;50.998;6.250;2023-06-22T11:47:38;13.63;;;7.10;;
16665;SDS011;8446;50.998;6.250;2023-06-22T11:50:05;10.73;;;7.47;;
16665;SDS011;8446;50.998;6.250;2023-06-22T11:52:33;12.17;;;7.30;;
16665;SDS011;8446;50.998;6.250;2023-06-22T11:55:00;9.67;;;7.70;;
16665;SDS011;8446;50.998;6.250;2023-06-22T11:57:28;11.50;;;8.20;;
16665;SDS011;8446;50.998;6.250;2023-06-22T11:59:56;12.33;;;8.60;;
16665;SDS011;8446;50.998;6.250;2023-06-22T12:02:22;9.67;;;7.33;;
16665;SDS011;8446;50.998;6.250;2023-06-22T12:04:50;10.90;;;8.70;;
16665;SDS011;8446;50.998;6.250;2023-06-22T12:07:19;10.80;;;7.83;;
16665;SDS011;8446;50.998;6.250;2023-06-22T12:09:46;12.43;;;7.47;;
16665;SDS011;8446;50.998;6.250;2023-06-22T12:12:13;15.00;;;7.73;;
16665;SDS011;8446;50.998;6.250;2023-06-22T12:14:40;11.80;;;8.13;;
16665;SDS011;8446;50.998;6.250;2023-06-22T12:17:06;12.97;;;8.97;;
16665;SDS011;8446;50.998;6.250;2023-06-22T12:19:33;9.63;;;8.63;;
16665;SDS011;8446;50.998;6.250;2023-06-22T12:25:19;14.23;;;11.00;;
16665;SDS011;8446;50.998;6.250;2023-06-22T12:27:45;20.23;;;13.13;;
16665;SDS011;8446;50.998;6.250;2023-06-22T12:30:12;17.17;;;12.00;;
16665;SDS011;8446;50.998;6.250;2023-06-22T12:32:39;16.57;;;14.30;;
16665;SDS011;8446;50.998;6.250;2023-06-22T12:35:06;18.87;;;14.10;;
16665;SDS011;8446;50.998;6.250;2023-06-22T12:37:38;21.30;;;14.70;;
16665;SDS011;8446;50.998;6.250;2023-06-22T12:40:06;21.50;;;14.20;;
16665;SDS011;8446;50.998;6.250;2023-06-22T12:42:40;21.13;;;14.90;;
16665;SDS011;8446;50.998;6.250;2023-06-22T12:45:11;21.73;;;15.67;;
16665;SDS011;8446;50.998;6.250;2023-06-22T12:47:38;19.60;;;14.47;;
16665;SDS011;8446;50.998;6.250;2023-06-22T12:50:07;25.50;;;16.90;;
16665;SDS011;8446;50.998;6.250;2023-06-22T12:52:36;23.83;;;16.63;;
16665;SDS011;8446;50.998;6.250;2023-06-22T12:55:05;22.17;;;15.67;;
16665;SDS011;8446;50.998;6.250;2023-06-22T12:57:32;22.63;;;15.57;;
16665;SDS011;8446;50.998;6.250;2023-06-22T13:00:00;24.00;;;16.57;;
16665;SDS011;8446;50.998;6.250;2023-06-22T13:02:28;21.13;;;15.57;;
16665;SDS011;8446;50.998;6.250;2023-06-22T13:04:55;19.30;;;14.23;;
16665;SDS011;8446;50.998;6.250;2023-06-22T13:07:22;22.67;;;14.27;;
16665;SDS011;8446;50.998;6.250;2023-06-22T13:09:49;23.60;;;15.73;;
16665;SDS011;8446;50.998;6.250;2023-06-22T13:12:17;20.70;;;14.53;;
16665;SDS011;8446;50.998;6.250;2023-06-22T13:14:44;25.20;;;14.17;;
16665;SDS011;8446;50.998;6.250;2023-06-22T13:17:13;23.50;;;15.20;;
16665;SDS011;8446;50.998;6.250;2023-06-22T13:19:40;22.23;;;14.70;;
16665;SDS011;8446;50.998;6.250;2023-06-22T13:22:09;19.53;;;15.33;;
16665;SDS011;8446;50.998;6.250;2023-06-22T13:24:53;20.27;;;15.07;;
16665;SDS011;8446;50.998;6.250;2023-06-22T13:27:20;21.70;;;16.23;;
16665;SDS011;8446;50.998;6.250;2023-06-22T13:29:47;24.00;;;16.13;;
16665;SDS011;8446;50.998;6.250;2023-06-22T13:32:15;17.83;;;13.97;;
16665;SDS011;8446;50.998;6.250;2023-06-22T13:34:42;25.33;;;14.20;;
16665;SDS011;8446;50.998;6.250;2023-06-22T13:37:09;20.10;;;15.00;;
16665;SDS011;8446;50.998;6.250;2023-06-22T13:39:36;19.07;;;13.10;;
16665;SDS011;8446;50.998;6.250;2023-06-22T13:42:02;17.77;;;13.53;;
16665;SDS011;8446;50.998;6.250;2023-06-22T13:44:30;23.90;;;15.37;;
16665;SDS011;8446;50.998;6.250;2023-06-22T13:46:56;23.83;;;16.00;;
16665;SDS011;8446;50.998;6.250;2023-06-22T13:49:25;22.77;;;15.80;;
16665;SDS011;8446;50.998;6.250;2023-06-22T13:51:52;21.73;;;15.63;;
16665;SDS011;8446;50.998;6.250;2023-06-22T13:54:19;22.37;;;15.00;;
16665;SDS011;8446;50.998;6.250;2023-06-22T13:56:45;24.10;;;16.70;;
16665;SDS011;8446;50.998;6.250;2023-06-22T13:59:12;26.17;;;15.70;;
16665;SDS011;8446;50.998;6.250;2023-06-22T14:01:39;26.10;;;16.50;;
16665;SDS011;8446;50.998;6.250;2023-06-22T14:04:06;23.63;;;16.73;;
16665;SDS011;8446;50.998;6.250;2023-06-22T14:06:34;26.47;;;18.47;;
16665;SDS011;8446;50.998;6.250;2023-06-22T14:09:01;25.13;;;18.40;;
16665;SDS011;8446;50.998;6.250;2023-06-22T14:11:28;25.83;;;18.30;;
16665;SDS011;8446;50.998;6.250;2023-06-22T14:13:55;33.37;;;21.00;;
16665;SDS011;8446;50.998;6.250;2023-06-22T14:16:21;32.23;;;20.83;;
16665;SDS011;8446;50.998;6.250;2023-06-22T14:18:48;31.10;;;22.60;;
16665;SDS011;8446;50.998;6.250;2023-06-22T14:21:15;34.37;;;23.20;;
16665;SDS011;8446;50.998;6.250;2023-06-22T14:23:43;29.40;;;22.37;;
16665;SDS011;8446;50.998;6.250;2023-06-22T14:26:14;31.40;;;22.17;;
16665;SDS011;8446;50.998;6.250;2023-06-22T14:28:42;38.73;;;25.60;;
16665;SDS011;8446;50.998;6.250;2023-06-22T14:31:12;40.30;;;25.70;;
16665;SDS011;8446;50.998;6.250;2023-06-22T14:33:39;40.00;;;28.10;;
16665;SDS011;8446;50.998;6.250;2023-06-22T14:36:05;37.00;;;25.83;;
16665;SDS011;8446;50.998;6.250;2023-06-22T14:38:32;36.57;;;26.03;;
16665;SDS011;8446;50.998;6.250;2023-06-22T14:41:00;41.23;;;28.07;;
16665;SDS011;8446;50.998;6.250;2023-06-22T14:43:27;33.70;;;26.13;;
16665;SDS011;8446;50.998;6.250;2023-06-22T14:45:54;38.70;;;27.70;;
16665;SDS011;8446;50.998;6.250;2023-06-22T14:48:21;39.20;;;27.93;;
16665;SDS011;8446;50.998;6.250;2023-06-22T14:50:47;40.57;;;26.33;;
16665;SDS011;8446;50.998;6.250;2023-06-22T14:53:14;41.33;;;28.47;;
16665;SDS011;8446;50.998;6.250;2023-06-22T14:55:41;39.50;;;29.40;;